createdAt,value
2018-05-03T00:00:52.766Z,14.20
2018-05-03T00:02:29.278Z,14.25
2018-05-03T00:02:53.554Z,14.28
2018-05-03T00:03:53.988Z,14.29
2018-05-03T00:04:54.414Z,14.25
2018-05-03T00:05:55.776Z,14.29
2018-05-03T00:10:02.235Z,14.22
2018-05-03T00:11:01.920Z,14.20
2018-05-03T00:12:56.509Z,14.22
2018-05-03T00:13:56.916Z,14.17
2018-05-03T00:15:52.468Z,14.32
2018-05-03T00:16:52.893Z,14.33
2018-05-03T00:18:47.473Z,14.30
2018-05-03T00:19:47.901Z,14.32
2018-05-03T00:21:42.512Z,14.08
2018-05-03T00:22:42.917Z,13.89
2018-05-03T00:23:43.356Z,13.78
2018-05-03T00:24:43.773Z,13.79
2018-05-03T00:25:44.210Z,13.79
2018-05-03T00:26:44.643Z,13.90
2018-05-03T00:27:45.073Z,13.97
2018-05-03T00:28:45.505Z,14.10
2018-05-03T00:29:45.934Z,14.17
2018-05-03T00:30:46.365Z,14.23
2018-05-03T00:31:46.795Z,14.25
2018-05-03T00:32:47.232Z,14.18
2018-05-03T00:33:47.714Z,14.05
2018-05-03T00:35:09.253Z,14.11
2018-05-03T00:36:12.281Z,13.96
2018-05-03T00:36:48.975Z,14.07
2018-05-03T00:37:49.383Z,14.12
2018-05-03T00:38:49.827Z,14.08
2018-05-03T00:39:50.247Z,13.96
2018-05-03T00:41:18.719Z,13.95
2018-05-03T00:41:51.124Z,14.07
2018-05-03T00:42:51.597Z,14.08
2018-05-03T00:43:51.973Z,14.07
2018-05-03T00:44:52.410Z,14.18
2018-05-03T00:45:52.835Z,14.26
2018-05-03T00:46:53.262Z,14.20
2018-05-03T00:47:53.695Z,14.23
2018-05-03T00:48:54.133Z,14.18
2018-05-03T00:49:54.557Z,14.22
2018-05-03T00:50:54.989Z,14.20
2018-05-03T00:51:55.420Z,14.33
2018-05-03T00:52:55.849Z,14.35
2018-05-03T00:53:56.281Z,14.32
2018-05-03T00:54:56.716Z,14.20
2018-05-03T00:55:57.162Z,14.22
2018-05-03T00:56:57.577Z,14.41
2018-05-03T00:57:58.057Z,14.45
2018-05-03T00:58:58.436Z,14.50
2018-05-03T00:59:58.872Z,14.26
2018-05-03T01:00:59.303Z,14.22
2018-05-03T01:01:59.733Z,14.33
2018-05-03T01:03:00.164Z,14.29
2018-05-03T01:04:00.593Z,14.18
2018-05-03T01:05:01.083Z,14.14
2018-05-03T01:06:02.169Z,14.17
2018-05-03T01:07:01.888Z,14.07
2018-05-03T01:08:02.322Z,13.96
2018-05-03T01:09:02.752Z,13.93
2018-05-03T01:10:03.186Z,13.81
2018-05-03T01:11:03.614Z,13.90
2018-05-03T01:12:04.044Z,13.87
2018-05-03T01:13:04.476Z,13.86
2018-05-03T01:14:04.908Z,13.79
2018-05-03T01:15:05.337Z,13.83
2018-05-03T01:16:12.809Z,13.81
2018-05-03T01:17:06.201Z,13.83
2018-05-03T01:18:06.641Z,13.90
2018-05-03T01:19:09.742Z,13.92
2018-05-03T01:20:07.503Z,13.90
2018-05-03T01:21:07.924Z,13.92
2018-05-03T01:22:08.359Z,14.04
2018-05-03T01:23:08.783Z,14.11
2018-05-03T01:24:30.386Z,13.97
2018-05-03T01:25:09.667Z,13.93
2018-05-03T01:26:10.113Z,13.92
2018-05-03T01:27:10.511Z,14.00
2018-05-03T01:28:10.944Z,14.08
2018-05-03T01:29:11.376Z,14.05
2018-05-03T01:30:11.803Z,14.04
2018-05-03T01:31:12.279Z,13.97
2018-05-03T01:32:12.674Z,13.96
2018-05-03T01:33:13.101Z,14.08
2018-05-03T01:34:13.527Z,13.81
2018-05-03T01:35:13.959Z,13.77
2018-05-03T01:36:14.397Z,13.70
2018-05-03T01:37:14.822Z,13.79
2018-05-03T01:38:15.251Z,13.75
2018-05-03T01:39:15.692Z,13.71
2018-05-03T01:40:16.119Z,13.74
2018-05-03T01:41:16.541Z,13.85
2018-05-03T01:42:16.982Z,13.75
2018-05-03T01:43:17.409Z,13.68
2018-05-03T01:44:17.839Z,13.71
2018-05-03T01:45:18.269Z,13.72
2018-05-03T01:46:18.703Z,13.83
2018-05-03T01:47:19.134Z,13.83
2018-05-03T01:48:19.557Z,13.70
2018-05-03T01:49:19.992Z,13.77
2018-05-03T01:50:20.426Z,13.77
2018-05-03T01:51:20.856Z,13.70
2018-05-03T01:52:21.353Z,13.86
2018-05-03T01:53:21.722Z,13.83
2018-05-03T01:54:22.149Z,13.79
2018-05-03T01:55:22.606Z,13.83
2018-05-03T01:56:23.008Z,13.83
2018-05-03T01:57:23.441Z,13.83
2018-05-03T01:58:23.878Z,13.81
2018-05-03T01:59:24.302Z,13.68
2018-05-03T02:00:24.731Z,13.65
2018-05-03T02:01:25.171Z,13.63
2018-05-03T02:02:25.611Z,13.59
2018-05-03T02:03:26.032Z,13.68
2018-05-03T02:04:26.461Z,13.53
2018-05-03T02:05:26.887Z,13.54
2018-05-03T02:06:27.445Z,13.54
2018-05-03T02:07:27.754Z,13.62
2018-05-03T02:08:28.204Z,13.62
2018-05-03T02:09:28.614Z,13.56
2018-05-03T02:10:29.042Z,13.68
2018-05-03T02:11:29.474Z,13.67
2018-05-03T02:12:29.918Z,13.70
2018-05-03T02:13:30.331Z,13.71
2018-05-03T02:14:30.760Z,13.70
2018-05-03T02:15:31.197Z,13.67
2018-05-03T02:16:31.621Z,13.83
2018-05-03T02:17:32.052Z,13.95
2018-05-03T02:18:32.489Z,13.99
2018-05-03T02:19:32.914Z,13.75
2018-05-03T02:20:33.346Z,13.71
2018-05-03T02:21:33.778Z,13.67
2018-05-03T02:22:34.213Z,13.70
2018-05-03T02:23:34.640Z,13.57
2018-05-03T02:24:35.068Z,13.56
2018-05-03T02:25:35.499Z,13.53
2018-05-03T02:26:35.931Z,13.53
2018-05-03T02:27:36.358Z,13.49
2018-05-03T02:28:36.790Z,13.53
2018-05-03T02:29:37.221Z,13.50
2018-05-03T02:30:58.813Z,13.63
2018-05-03T02:31:59.262Z,13.70
2018-05-03T02:32:38.517Z,13.71
2018-05-03T02:33:38.957Z,13.65
2018-05-03T02:34:39.388Z,13.50
2018-05-03T02:35:39.807Z,13.63
2018-05-03T02:36:40.255Z,13.49
2018-05-03T02:37:40.770Z,13.56
2018-05-03T02:38:41.097Z,13.56
2018-05-03T02:39:41.532Z,13.57
2018-05-03T02:40:41.967Z,13.37
2018-05-03T02:41:42.388Z,13.28
2018-05-03T02:42:42.825Z,13.35
2018-05-03T02:44:07.281Z,13.31
2018-05-03T02:44:43.685Z,13.15
2018-05-03T02:45:44.113Z,13.19
2018-05-03T02:46:44.543Z,13.39
2018-05-03T02:47:44.971Z,13.41
2018-05-03T02:48:45.407Z,13.49
2018-05-03T02:49:45.837Z,13.50
2018-05-03T02:50:46.266Z,13.63
2018-05-03T02:51:46.695Z,13.63
2018-05-03T02:52:47.128Z,13.59
2018-05-03T02:53:47.558Z,13.62
2018-05-03T02:54:47.988Z,13.65
2018-05-03T02:55:48.421Z,13.71
2018-05-03T02:56:48.850Z,13.65
2018-05-03T02:57:49.281Z,13.71
2018-05-03T02:58:49.712Z,13.71
2018-05-03T02:59:50.147Z,13.75
2018-05-03T03:00:50.574Z,13.54
2018-05-03T03:01:51.001Z,13.44
2018-05-03T03:02:51.436Z,13.56
2018-05-03T03:03:51.916Z,13.67
2018-05-03T03:04:52.300Z,13.59
2018-05-03T03:05:52.747Z,13.70
2018-05-03T03:06:53.165Z,13.65
2018-05-03T03:07:53.592Z,13.70
2018-05-03T03:08:54.065Z,13.68
2018-05-03T03:09:54.452Z,13.70
2018-05-03T03:10:54.880Z,13.71
2018-05-03T03:11:55.312Z,13.68
2018-05-03T03:12:55.749Z,13.71
2018-05-03T03:13:56.178Z,13.75
2018-05-03T03:14:56.600Z,13.62
2018-05-03T03:15:57.033Z,13.68
2018-05-03T03:16:57.462Z,13.68
2018-05-03T03:17:57.892Z,13.65
2018-05-03T03:18:58.325Z,13.67
2018-05-03T03:19:58.755Z,13.72
2018-05-03T03:20:59.182Z,13.54
2018-05-03T03:21:59.623Z,13.54
2018-05-03T03:23:00.048Z,13.62
2018-05-03T03:24:00.489Z,13.71
2018-05-03T03:25:00.905Z,13.65
2018-05-03T03:26:01.341Z,13.57
2018-05-03T03:27:01.775Z,13.49
2018-05-03T03:28:02.198Z,13.35
2018-05-03T03:29:02.632Z,13.25
2018-05-03T03:30:03.084Z,13.30
2018-05-03T03:31:03.492Z,13.33
2018-05-03T03:32:03.975Z,13.25
2018-05-03T03:33:04.360Z,13.33
2018-05-03T03:34:04.783Z,13.20
2018-05-03T03:35:05.215Z,13.19
2018-05-03T03:36:05.644Z,13.18
2018-05-03T03:37:06.075Z,13.25
2018-05-03T03:38:06.504Z,13.25
2018-05-03T03:39:06.938Z,13.30
2018-05-03T03:40:07.365Z,13.23
2018-05-03T03:41:07.798Z,13.27
2018-05-03T03:42:08.223Z,13.37
2018-05-03T03:43:08.667Z,13.35
2018-05-03T03:44:09.091Z,13.20
2018-05-03T03:45:09.518Z,13.30
2018-05-03T03:46:09.948Z,13.18
2018-05-03T03:47:10.395Z,13.03
2018-05-03T03:48:34.793Z,13.05
2018-05-03T03:50:44.351Z,13.30
2018-05-03T03:51:44.778Z,13.31
2018-05-03T03:53:40.115Z,13.18
2018-05-03T03:54:41.594Z,13.15
2018-05-03T03:56:36.206Z,13.15
2018-05-03T03:58:49.118Z,13.16
2018-05-03T04:01:03.834Z,13.13
2018-05-03T04:02:04.259Z,13.28
2018-05-03T04:03:59.830Z,13.33
2018-05-03T04:05:00.232Z,13.09
2018-05-03T04:06:55.781Z,13.25
2018-05-03T04:07:56.214Z,13.23
2018-05-03T04:09:50.785Z,13.38
2018-05-03T04:10:51.212Z,13.38
2018-05-03T04:12:45.765Z,13.35
2018-05-03T04:13:46.200Z,13.35
2018-05-03T04:15:40.761Z,13.27
2018-05-03T04:16:41.192Z,13.25
2018-05-03T04:18:36.747Z,13.35
2018-05-03T04:20:52.452Z,13.25
2018-05-03T04:21:52.884Z,13.19
2018-05-03T04:23:48.419Z,13.16
2018-05-03T04:24:48.851Z,13.27
2018-05-03T04:26:43.447Z,13.52
2018-05-03T04:27:43.877Z,13.56
2018-05-03T04:29:38.450Z,13.65
2018-05-03T04:30:38.878Z,13.71
2018-05-03T04:32:33.454Z,13.63
2018-05-03T04:33:33.875Z,13.59
2018-05-03T04:35:28.469Z,13.62
2018-05-03T04:36:28.871Z,13.57
2018-05-03T04:38:23.432Z,13.63
2018-05-03T04:39:23.866Z,13.63
2018-05-03T04:41:18.438Z,13.56
2018-05-03T04:42:18.865Z,13.46
2018-05-03T04:44:13.421Z,13.44
2018-05-03T04:45:13.915Z,13.62
2018-05-03T04:47:08.426Z,13.47
2018-05-03T04:48:08.846Z,13.52
2018-05-03T04:50:03.417Z,13.63
2018-05-03T04:51:03.846Z,13.68
2018-05-03T04:52:58.481Z,13.92
2018-05-03T04:53:58.852Z,14.10
2018-05-03T04:55:53.599Z,14.14
2018-05-03T04:56:54.010Z,14.23
2018-05-03T04:58:48.573Z,14.32
2018-05-03T04:59:49.005Z,14.32
2018-05-03T05:01:46.342Z,14.37
2018-05-03T05:02:44.998Z,14.50
2018-05-03T05:04:39.562Z,14.33
2018-05-03T05:05:39.994Z,14.30
2018-05-03T05:07:34.559Z,14.29
2018-05-03T05:09:50.041Z,14.03
2018-05-03T05:12:05.769Z,14.22
2018-05-03T05:13:07.254Z,14.08
2018-05-03T05:15:21.788Z,14.14
2018-05-03T05:15:59.425Z,14.15
2018-05-03T05:17:54.035Z,14.11
2018-05-03T05:18:54.419Z,14.36
2018-05-03T05:20:49.969Z,14.33
2018-05-03T05:21:50.399Z,14.37
2018-05-03T05:23:45.835Z,14.35
2018-05-03T05:24:46.247Z,14.58
2018-05-03T05:26:40.837Z,14.37
2018-05-03T05:27:41.299Z,14.45
2018-05-03T05:29:35.855Z,14.44
2018-05-03T05:30:36.285Z,14.55
2018-05-03T05:31:36.686Z,14.58
2018-05-03T05:32:37.134Z,14.41
2018-05-03T05:33:37.559Z,14.54
2018-05-03T05:34:38.071Z,14.50
2018-05-03T05:35:38.415Z,14.65
2018-05-03T05:36:38.853Z,14.86
2018-05-03T05:37:39.279Z,14.70
2018-05-03T05:38:39.788Z,14.72
2018-05-03T05:39:40.147Z,14.70
2018-05-03T05:40:40.585Z,14.62
2018-05-03T05:41:41.014Z,14.68
2018-05-03T05:42:41.447Z,14.65
2018-05-03T05:43:41.895Z,14.63
2018-05-03T05:44:42.313Z,14.79
2018-05-03T05:45:42.748Z,14.70
2018-05-03T05:46:43.176Z,15.03
2018-05-03T05:47:43.620Z,14.72
2018-05-03T05:48:44.046Z,14.89
2018-05-03T05:49:44.475Z,14.91
2018-05-03T05:50:44.911Z,14.97
2018-05-03T05:51:45.351Z,15.00
2018-05-03T05:52:45.776Z,14.99
2018-05-03T05:53:46.212Z,14.92
2018-05-03T05:54:46.642Z,14.92
2018-05-03T05:55:47.076Z,15.06
2018-05-03T05:56:47.563Z,15.24
2018-05-03T05:57:47.956Z,15.15
2018-05-03T05:58:48.377Z,15.10
2018-05-03T05:59:48.809Z,15.10
2018-05-03T06:00:49.243Z,15.10
2018-05-03T06:01:49.678Z,15.15
2018-05-03T06:02:50.123Z,15.24
2018-05-03T06:03:50.545Z,15.24
2018-05-03T06:04:50.979Z,15.21
2018-05-03T06:05:51.408Z,15.36
2018-05-03T06:06:51.849Z,15.49
2018-05-03T06:07:52.280Z,15.86
2018-05-03T06:08:52.733Z,15.76
2018-05-03T06:09:53.146Z,15.79
2018-05-03T06:10:53.580Z,15.88
2018-05-03T06:11:54.022Z,16.00
2018-05-03T06:12:54.449Z,16.01
2018-05-03T06:13:54.887Z,15.70
2018-05-03T06:14:55.318Z,15.76
2018-05-03T06:15:55.756Z,16.05
2018-05-03T06:16:56.195Z,16.13
2018-05-03T06:17:56.628Z,15.95
2018-05-03T06:18:57.058Z,16.31
2018-05-03T06:19:57.504Z,16.04
2018-05-03T06:20:57.931Z,16.35
2018-05-03T06:21:58.371Z,16.13
2018-05-03T06:22:58.805Z,16.00
2018-05-03T06:23:59.237Z,16.01
2018-05-03T06:24:59.678Z,16.01
2018-05-03T06:26:00.126Z,16.26
2018-05-03T06:27:00.547Z,16.49
2018-05-03T06:28:00.982Z,16.28
2018-05-03T06:29:01.417Z,16.54
2018-05-03T06:30:01.852Z,16.46
2018-05-03T06:31:02.294Z,16.58
2018-05-03T06:32:02.726Z,16.64
2018-05-03T06:33:03.166Z,16.51
2018-05-03T06:34:03.595Z,16.35
2018-05-03T06:35:04.037Z,16.46
2018-05-03T06:36:04.470Z,16.38
2018-05-03T06:37:04.906Z,15.92
2018-05-03T06:38:05.355Z,15.98
2018-05-03T06:39:05.782Z,16.46
2018-05-03T06:40:06.220Z,16.90
2018-05-03T06:41:06.657Z,17.52
2018-05-03T06:42:07.100Z,17.80
2018-05-03T06:43:07.531Z,18.52
2018-05-03T06:44:07.969Z,18.66
2018-05-03T06:45:08.418Z,19.19
2018-05-03T06:46:08.843Z,19.34
2018-05-03T06:47:09.309Z,18.74
2018-05-03T06:48:09.730Z,18.77
2018-05-03T06:49:10.166Z,19.37
2018-05-03T06:50:10.605Z,18.99
2018-05-03T06:51:11.046Z,18.44
2018-05-03T06:52:11.496Z,18.60
2018-05-03T06:53:11.938Z,17.76
2018-05-03T06:54:12.368Z,18.45
2018-05-03T06:55:12.817Z,18.00
2018-05-03T06:56:13.257Z,18.03
2018-05-03T06:57:13.701Z,18.01
2018-05-03T06:58:14.141Z,18.26
2018-05-03T06:59:14.585Z,18.13
2018-05-03T07:00:15.109Z,17.86
2018-05-03T07:01:15.497Z,17.92
2018-05-03T07:02:15.918Z,18.19
2018-05-03T07:03:16.363Z,18.41
2018-05-03T07:04:16.894Z,17.70
2018-05-03T07:05:17.253Z,17.68
2018-05-03T07:06:17.698Z,17.64
2018-05-03T07:07:18.144Z,18.16
2018-05-03T07:08:18.586Z,18.37
2018-05-03T07:09:19.031Z,18.38
2018-05-03T07:10:19.474Z,18.70
2018-05-03T07:11:19.915Z,18.28
2018-05-03T07:12:20.387Z,18.38
2018-05-03T07:13:20.804Z,18.33
2018-05-03T07:14:21.245Z,17.72
2018-05-03T07:15:21.688Z,17.02
2018-05-03T07:16:22.165Z,17.57
2018-05-03T07:17:22.571Z,17.41
2018-05-03T07:18:23.024Z,17.05
2018-05-03T07:19:23.493Z,17.09
2018-05-03T07:20:23.901Z,17.08
2018-05-03T07:21:24.361Z,17.70
2018-05-03T07:22:24.802Z,17.98
2018-05-03T07:23:25.227Z,17.24
2018-05-03T07:24:25.670Z,17.57
2018-05-03T07:25:26.108Z,17.05
2018-05-03T07:26:26.555Z,16.84
2018-05-03T07:27:26.995Z,16.86
2018-05-03T07:28:27.448Z,16.84
2018-05-03T07:29:27.969Z,17.09
2018-05-03T07:30:28.314Z,17.12
2018-05-03T07:31:28.756Z,17.27
2018-05-03T07:32:29.196Z,17.27
2018-05-03T07:33:29.634Z,16.87
2018-05-03T07:34:30.115Z,16.65
2018-05-03T07:35:30.522Z,16.87
2018-05-03T07:36:30.958Z,17.05
2018-05-03T07:37:31.391Z,16.75
2018-05-03T07:38:31.833Z,16.76
2018-05-03T07:39:32.273Z,16.47
2018-05-03T07:40:32.720Z,16.76
2018-05-03T07:41:33.150Z,16.69
2018-05-03T07:42:33.583Z,16.76
2018-05-03T07:43:34.022Z,16.81
2018-05-03T07:44:34.459Z,16.86
2018-05-03T07:45:34.899Z,16.94
2018-05-03T07:46:35.343Z,17.06
2018-05-03T07:47:35.770Z,16.90
2018-05-03T07:48:36.283Z,16.69
2018-05-03T07:49:36.666Z,16.31
2018-05-03T07:50:37.086Z,16.23
2018-05-03T07:51:37.526Z,16.23
2018-05-03T07:52:37.957Z,16.17
2018-05-03T07:53:38.398Z,15.91
2018-05-03T07:54:38.832Z,15.86
2018-05-03T07:55:39.266Z,15.97
2018-05-03T07:56:39.766Z,16.01
2018-05-03T07:57:40.146Z,16.50
2018-05-03T07:58:40.627Z,16.57
2018-05-03T07:59:41.015Z,16.53
2018-05-03T08:00:41.452Z,16.26
2018-05-03T08:01:41.890Z,16.39
2018-05-03T08:02:42.319Z,16.33
2018-05-03T08:03:42.766Z,16.89
2018-05-03T08:04:43.225Z,16.97
2018-05-03T08:05:43.628Z,17.14
2018-05-03T08:06:44.075Z,17.33
2018-05-03T08:07:44.508Z,17.41
2018-05-03T08:08:44.949Z,17.30
2018-05-03T08:09:45.382Z,17.23
2018-05-03T08:10:45.822Z,17.26
2018-05-03T08:11:46.258Z,17.11
2018-05-03T08:12:46.701Z,17.08
2018-05-03T08:13:47.137Z,17.41
2018-05-03T08:14:47.574Z,17.86
2018-05-03T08:15:48.022Z,18.04
2018-05-03T08:16:48.453Z,18.22
2018-05-03T08:17:48.898Z,17.76
2018-05-03T08:18:49.332Z,18.10
2018-05-03T08:19:49.775Z,18.04
2018-05-03T08:20:50.220Z,18.04
2018-05-03T08:21:50.653Z,18.41
2018-05-03T08:22:51.097Z,19.14
2018-05-03T08:23:51.546Z,19.24
2018-05-03T08:24:51.981Z,19.47
2018-05-03T08:25:52.439Z,19.88
2018-05-03T08:26:52.868Z,20.04
2018-05-03T08:27:53.326Z,19.73
2018-05-03T08:28:53.789Z,18.75
2018-05-03T08:29:54.209Z,19.36
2018-05-03T08:30:54.650Z,18.89
2018-05-03T08:31:55.119Z,19.40
2018-05-03T08:32:55.544Z,20.87
2018-05-03T08:33:55.995Z,20.24
2018-05-03T08:34:56.444Z,20.81
2018-05-03T08:35:56.894Z,22.07
2018-05-03T08:36:57.340Z,22.02
2018-05-03T08:37:57.797Z,22.25
2018-05-03T08:38:58.256Z,21.96
2018-05-03T08:39:58.701Z,21.48
2018-05-03T08:40:59.152Z,21.29
2018-05-03T08:41:59.610Z,20.00
2018-05-03T08:43:00.064Z,20.18
2018-05-03T08:44:00.525Z,21.00
2018-05-03T08:45:00.977Z,20.09
2018-05-03T08:46:01.435Z,21.14
2018-05-03T08:47:01.894Z,21.85
2018-05-03T08:48:02.347Z,22.08
2018-05-03T08:49:02.803Z,22.36
2018-05-03T08:50:03.265Z,22.20
2018-05-03T08:51:03.718Z,22.78
2018-05-03T08:52:04.179Z,22.85
2018-05-03T08:53:04.627Z,22.80
2018-05-03T08:54:05.090Z,23.92
2018-05-03T08:55:05.559Z,24.17
2018-05-03T08:56:06.005Z,22.45
2018-05-03T08:57:06.466Z,23.55
2018-05-03T08:58:06.920Z,25.01
2018-05-03T08:59:07.385Z,24.16
2018-05-03T09:00:07.844Z,21.98
2018-05-03T09:01:08.296Z,20.51
2018-05-03T09:03:41.910Z,23.09
2018-05-03T09:04:42.367Z,24.63
2018-05-03T09:06:36.989Z,25.26
2018-05-03T09:07:37.536Z,22.68
2018-05-03T09:09:32.060Z,23.47
2018-05-03T09:10:32.526Z,24.76
2018-05-03T09:11:32.991Z,26.29
2018-05-03T09:12:33.450Z,26.73
2018-05-03T09:13:33.929Z,24.60
2018-05-03T09:14:34.382Z,22.75
2018-05-03T09:15:34.835Z,22.35
2018-05-03T09:16:35.297Z,22.73
2018-05-03T09:17:35.761Z,20.97
2018-05-03T09:18:36.221Z,21.39
2018-05-03T09:19:36.685Z,22.59
2018-05-03T09:20:37.150Z,22.48
2018-05-03T09:21:37.607Z,22.91
2018-05-03T09:22:38.071Z,23.31
2018-05-03T09:23:38.537Z,24.24
2018-05-03T09:24:38.994Z,25.81
2018-05-03T09:25:39.456Z,24.86
2018-05-03T09:26:39.917Z,25.40
2018-05-03T09:27:40.379Z,25.21
2018-05-03T09:28:40.843Z,24.95
2018-05-03T09:29:41.319Z,22.90
2018-05-03T09:30:41.764Z,22.78
2018-05-03T09:31:42.234Z,22.39
2018-05-03T09:32:42.715Z,22.35
2018-05-03T09:33:43.161Z,22.75
2018-05-03T09:34:43.619Z,23.50
2018-05-03T09:35:44.081Z,24.85
2018-05-03T09:36:44.552Z,25.21
2018-05-03T09:37:45.006Z,26.22
2018-05-03T09:38:45.468Z,25.96
2018-05-03T09:39:45.936Z,26.52
2018-05-03T09:40:46.401Z,26.84
2018-05-03T09:41:46.862Z,26.55
2018-05-03T09:42:47.326Z,25.81
2018-05-03T09:43:47.787Z,24.18
2018-05-03T09:44:48.312Z,23.31
2018-05-03T09:45:48.715Z,25.03
2018-05-03T09:46:49.195Z,24.91
2018-05-03T09:47:49.648Z,25.07
2018-05-03T09:48:50.113Z,26.07
2018-05-03T09:49:50.565Z,26.31
2018-05-03T09:50:51.036Z,24.13
2018-05-03T09:51:51.503Z,24.13
2018-05-03T09:52:51.966Z,23.61
2018-05-03T09:53:52.433Z,23.13
2018-05-03T09:54:52.886Z,22.36
2018-05-03T09:55:53.370Z,23.20
2018-05-03T09:56:53.823Z,24.43
2018-05-03T09:57:54.284Z,25.65
2018-05-03T09:58:54.752Z,25.81
2018-05-03T09:59:55.224Z,26.74
2018-05-03T10:00:55.671Z,27.02
2018-05-03T10:01:56.149Z,24.35
2018-05-03T10:02:56.617Z,24.70
2018-05-03T10:03:57.078Z,25.23
2018-05-03T10:04:57.546Z,25.54
2018-05-03T10:05:57.995Z,27.75
2018-05-03T10:06:58.470Z,27.83
2018-05-03T10:07:58.927Z,28.82
2018-05-03T10:08:59.400Z,29.34
2018-05-03T10:09:59.863Z,25.54
2018-05-03T10:11:00.339Z,24.65
2018-05-03T10:12:00.794Z,24.35
2018-05-03T10:13:01.266Z,25.26
2018-05-03T10:14:01.726Z,26.41
2018-05-03T10:15:02.201Z,27.78
2018-05-03T10:16:02.666Z,29.26
2018-05-03T10:17:03.128Z,30.00
2018-05-03T10:18:03.598Z,29.69
2018-05-03T10:19:04.060Z,26.71
2018-05-03T10:20:04.529Z,26.73
2018-05-03T10:21:05.013Z,27.30
2018-05-03T10:22:05.469Z,26.84
2018-05-03T10:23:05.931Z,26.52
2018-05-03T10:24:06.401Z,27.18
2018-05-03T10:25:06.878Z,27.96
2018-05-03T10:26:07.370Z,25.88
2018-05-03T10:27:07.805Z,25.69
2018-05-03T10:28:08.271Z,23.95
2018-05-03T10:29:08.735Z,25.11
2018-05-03T10:30:09.296Z,26.23
2018-05-03T10:31:09.667Z,24.29
2018-05-03T10:32:10.129Z,25.99
2018-05-03T10:33:10.600Z,27.44
2018-05-03T10:34:11.072Z,27.49
2018-05-03T10:35:11.534Z,26.51
2018-05-03T10:36:12.086Z,24.08
2018-05-03T10:37:12.471Z,23.34
2018-05-03T10:38:12.939Z,23.48
2018-05-03T10:39:13.394Z,24.98
2018-05-03T10:40:13.863Z,25.81
2018-05-03T10:41:14.347Z,26.88
2018-05-03T10:42:14.862Z,26.97
2018-05-03T10:43:15.264Z,26.34
2018-05-03T10:44:15.740Z,27.32
2018-05-03T10:45:16.195Z,27.85
2018-05-03T10:46:16.655Z,28.64
2018-05-03T10:47:17.135Z,26.56
2018-05-03T10:48:17.602Z,26.48
2018-05-03T10:49:18.067Z,28.23
2018-05-03T10:50:18.529Z,30.08
2018-05-03T10:51:18.987Z,28.01
2018-05-03T10:52:19.458Z,28.08
2018-05-03T10:53:19.918Z,29.26
2018-05-03T10:54:20.396Z,31.17
2018-05-03T10:55:20.865Z,31.74
2018-05-03T10:56:21.326Z,30.53
2018-05-03T10:57:21.871Z,26.19
2018-05-03T10:58:22.261Z,27.95
2018-05-03T10:59:22.744Z,27.02
2018-05-03T11:00:23.221Z,26.23
2018-05-03T11:01:23.681Z,26.45
2018-05-03T11:02:24.140Z,28.67
2018-05-03T11:03:24.605Z,27.82
2018-05-03T11:04:25.080Z,25.60
2018-05-03T11:05:25.615Z,26.66
2018-05-03T11:06:26.027Z,25.25
2018-05-03T11:07:26.483Z,26.56
2018-05-03T11:08:26.969Z,27.70
2018-05-03T11:09:27.415Z,28.49
2018-05-03T11:10:27.885Z,27.78
2018-05-03T11:11:28.354Z,29.13
2018-05-03T11:12:28.826Z,25.77
2018-05-03T11:13:29.301Z,26.16
2018-05-03T11:14:29.781Z,26.16
2018-05-03T11:15:30.224Z,26.85
2018-05-03T11:16:30.696Z,24.85
2018-05-03T11:17:31.162Z,23.81
2018-05-03T11:18:31.630Z,24.38
2018-05-03T11:19:32.097Z,25.46
2018-05-03T11:20:32.565Z,27.42
2018-05-03T11:21:33.030Z,27.85
2018-05-03T11:22:33.498Z,26.07
2018-05-03T11:23:33.971Z,25.44
2018-05-03T11:24:34.427Z,26.31
2018-05-03T11:25:34.892Z,25.72
2018-05-03T11:26:35.363Z,24.42
2018-05-03T11:27:35.845Z,24.24
2018-05-03T11:28:36.323Z,24.17
2018-05-03T11:29:36.776Z,24.73
2018-05-03T11:30:37.225Z,24.47
2018-05-03T11:31:37.694Z,24.42
2018-05-03T11:32:38.163Z,23.47
2018-05-03T11:33:38.624Z,24.18
2018-05-03T11:34:39.115Z,23.93
2018-05-03T11:35:39.555Z,24.53
2018-05-03T11:36:40.026Z,23.92
2018-05-03T11:37:40.551Z,23.65
2018-05-03T11:38:40.932Z,23.21
2018-05-03T11:39:41.447Z,23.68
2018-05-03T11:40:41.862Z,23.13
2018-05-03T11:41:42.321Z,23.40
2018-05-03T11:42:42.877Z,23.34
2018-05-03T11:43:43.231Z,22.48
2018-05-03T11:44:43.702Z,21.96
2018-05-03T11:45:44.150Z,22.38
2018-05-03T11:46:44.603Z,22.39
2018-05-03T11:47:45.068Z,22.36
2018-05-03T11:48:45.543Z,22.45
2018-05-03T11:49:45.976Z,22.51
2018-05-03T11:50:46.429Z,22.80
2018-05-03T11:51:46.885Z,22.41
2018-05-03T11:52:47.351Z,22.85
2018-05-03T11:53:47.780Z,22.33
2018-05-03T11:54:48.208Z,21.85
2018-05-03T11:55:48.669Z,21.79
2018-05-03T11:56:49.116Z,21.60
2018-05-03T11:57:49.557Z,21.72
2018-05-03T11:58:50.009Z,21.98
2018-05-03T11:59:50.462Z,21.60
2018-05-03T12:00:50.907Z,21.61
2018-05-03T12:01:51.353Z,21.30
2018-05-03T12:02:51.795Z,21.06
2018-05-03T12:03:52.266Z,21.39
2018-05-03T12:04:52.695Z,21.30
2018-05-03T12:05:53.148Z,21.48
2018-05-03T12:06:53.591Z,21.55
2018-05-03T12:07:54.031Z,21.46
2018-05-03T12:08:54.480Z,21.88
2018-05-03T12:09:54.925Z,21.80
2018-05-03T12:10:55.378Z,21.58
2018-05-03T12:11:55.808Z,21.69
2018-05-03T12:12:56.261Z,21.70
2018-05-03T12:13:56.733Z,21.18
2018-05-03T12:14:57.163Z,21.30
2018-05-03T12:15:57.606Z,21.48
2018-05-03T12:16:58.046Z,21.72
2018-05-03T12:17:58.496Z,21.02
2018-05-03T12:18:58.935Z,20.62
2018-05-03T12:19:59.381Z,20.74
2018-05-03T12:20:59.823Z,21.12
2018-05-03T12:22:00.259Z,21.40
2018-05-03T12:23:00.752Z,21.60
2018-05-03T12:24:01.148Z,21.61
2018-05-03T12:25:01.620Z,21.43
2018-05-03T12:26:02.048Z,21.73
2018-05-03T12:27:02.486Z,21.89
2018-05-03T12:28:02.949Z,21.22
2018-05-03T12:29:03.381Z,21.43
2018-05-03T12:30:03.820Z,21.72
2018-05-03T12:31:04.259Z,21.80
2018-05-03T12:32:04.749Z,21.45
2018-05-03T12:33:05.155Z,21.15
2018-05-03T12:34:05.590Z,21.48
2018-05-03T12:35:06.044Z,21.48
2018-05-03T12:36:06.495Z,21.51
2018-05-03T12:37:06.932Z,21.85
2018-05-03T12:38:07.373Z,22.25
2018-05-03T12:39:07.816Z,21.80
2018-05-03T12:40:08.263Z,21.37
2018-05-03T12:41:08.709Z,21.36
2018-05-03T12:42:09.158Z,20.99
2018-05-03T12:43:09.604Z,21.14
2018-05-03T12:44:10.057Z,21.42
2018-05-03T12:45:10.483Z,21.21
2018-05-03T12:46:10.933Z,21.00
2018-05-03T12:47:11.380Z,21.03
2018-05-03T12:48:11.826Z,21.17
2018-05-03T12:49:12.261Z,21.30
2018-05-03T12:50:12.740Z,21.22
2018-05-03T12:51:13.159Z,21.11
2018-05-03T12:52:13.599Z,21.37
2018-05-03T12:53:14.041Z,21.55
2018-05-03T12:54:14.486Z,21.51
2018-05-03T12:55:14.932Z,21.32
2018-05-03T12:56:15.373Z,21.20
2018-05-03T12:57:15.862Z,21.22
2018-05-03T12:58:16.266Z,21.55
2018-05-03T12:59:16.706Z,21.76
2018-05-03T13:00:17.159Z,21.46
2018-05-03T13:01:17.595Z,21.62
2018-05-03T13:02:18.038Z,21.62
2018-05-03T13:03:18.518Z,21.33
2018-05-03T13:04:18.927Z,21.42
2018-05-03T13:05:19.373Z,21.27
2018-05-03T13:06:19.809Z,21.22
2018-05-03T13:07:20.288Z,21.18
2018-05-03T13:08:20.697Z,21.27
2018-05-03T13:09:21.147Z,21.35
2018-05-03T13:10:21.586Z,21.43
2018-05-03T13:11:22.025Z,21.43
2018-05-03T13:12:22.510Z,21.21
2018-05-03T13:13:22.916Z,21.24
2018-05-03T13:14:23.356Z,21.35
2018-05-03T13:15:23.800Z,21.22
2018-05-03T13:16:24.233Z,21.27
2018-05-03T13:17:24.703Z,21.06
2018-05-03T13:18:25.129Z,21.05
2018-05-03T13:19:25.567Z,21.22
2018-05-03T13:20:26.090Z,21.14
2018-05-03T13:21:26.446Z,21.29
2018-05-03T13:22:26.894Z,21.30
2018-05-03T13:23:27.341Z,21.25
2018-05-03T13:24:27.774Z,21.17
2018-05-03T13:25:28.270Z,21.15
2018-05-03T13:26:28.676Z,21.30
2018-05-03T13:27:29.105Z,21.25
2018-05-03T13:28:29.553Z,21.40
2018-05-03T13:29:30.059Z,21.15
2018-05-03T13:30:30.432Z,21.17
2018-05-03T13:31:30.868Z,20.96
2018-05-03T13:32:31.313Z,20.99
2018-05-03T13:33:31.793Z,20.87
2018-05-03T13:34:32.312Z,20.90
2018-05-03T13:35:32.637Z,21.03
2018-05-03T13:36:33.086Z,21.20
2018-05-03T13:37:33.518Z,21.27
2018-05-03T13:38:33.969Z,21.14
2018-05-03T13:39:34.401Z,21.27
2018-05-03T13:40:34.841Z,21.32
2018-05-03T13:41:35.302Z,21.30
2018-05-03T13:42:35.734Z,21.09
2018-05-03T13:43:36.176Z,21.20